createdAt,value
2023-04-13T00:00:51.922Z,54.32
2023-04-13T00:05:55.863Z,56.09
2023-04-13T00:11:00.211Z,58.72
2023-04-13T00:16:03.393Z,60.22
2023-04-13T00:21:07.602Z,68.71
2023-04-13T00:26:10.664Z,70.64
2023-04-13T00:31:14.003Z,65.80
2023-04-13T00:36:17.978Z,61.70
2023-04-13T00:41:21.076Z,54.64
2023-04-13T00:46:24.808Z,53.78
2023-04-13T00:51:30.531Z,54.84
2023-04-13T00:56:34.573Z,56.77
2023-04-13T01:01:46.562Z,58.30
2023-04-13T01:07:18.825Z,59.80
2023-04-13T01:12:56.816Z,69.81
2023-04-13T01:18:07.605Z,69.24
2023-04-13T01:23:53.541Z,63.67
2023-04-13T01:28:58.324Z,55.21
2023-04-13T01:34:02.304Z,53.77
2023-04-13T01:39:06.011Z,54.86
2023-04-13T01:44:09.323Z,56.32
2023-04-13T01:49:19.681Z,58.42
2023-04-13T01:54:27.654Z,59.74
2023-04-13T01:59:31.138Z,69.04
2023-04-13T02:04:34.248Z,71.46
2023-04-13T02:09:37.347Z,66.28
2023-04-13T02:14:40.559Z,62.34
2023-04-13T02:19:44.296Z,55.83
2023-04-13T02:24:47.899Z,54.44
2023-04-13T02:29:52.640Z,56.20
2023-04-13T02:34:55.750Z,57.72
2023-04-13T02:39:58.857Z,60.00
2023-04-13T02:45:02.087Z,69.47
2023-04-13T02:50:06.972Z,72.11
2023-04-13T02:55:11.300Z,67.09
2023-04-13T03:00:16.262Z,61.95
2023-04-13T03:05:20.125Z,54.84
2023-04-13T03:10:23.323Z,53.69
2023-04-13T03:15:26.327Z,55.50
2023-04-13T03:20:29.562Z,57.31
2023-04-13T03:25:33.862Z,58.40
2023-04-13T03:30:37.808Z,59.46
2023-04-13T03:35:41.321Z,68.25
2023-04-13T03:40:44.937Z,70.27
2023-04-13T03:45:48.044Z,64.66
2023-04-13T03:50:51.149Z,60.91
2023-04-13T03:55:54.568Z,54.35
2023-04-13T04:00:57.981Z,53.27
2023-04-13T04:06:01.308Z,55.55
2023-04-13T04:11:05.201Z,57.36
2023-04-13T04:16:09.730Z,58.52
2023-04-13T04:21:15.751Z,67.34
2023-04-13T04:26:25.914Z,70.42
2023-04-13T04:31:37.394Z,65.37
2023-04-13T04:36:42.241Z,61.37
2023-04-13T04:41:45.362Z,55.21
2023-04-13T04:46:49.426Z,54.18
2023-04-13T04:51:53.127Z,55.97
2023-04-13T04:56:58.319Z,57.64
2023-04-13T05:02:01.377Z,59.93
2023-04-13T05:07:04.581Z,68.86
2023-04-13T05:12:07.785Z,71.72
2023-04-13T05:17:10.993Z,67.38
2023-04-13T05:22:16.042Z,63.45
2023-04-13T05:27:19.045Z,56.32
2023-04-13T05:32:22.159Z,54.39
2023-04-13T05:37:25.264Z,56.10
2023-04-13T05:42:28.400Z,58.71
2023-04-13T05:47:31.924Z,65.93
2023-04-13T05:52:35.407Z,69.37
2023-04-13T05:57:38.501Z,65.57
2023-04-13T06:02:42.236Z,62.13
2023-04-13T06:07:46.790Z,60.14
2023-04-13T06:12:50.888Z,54.22
2023-04-13T06:17:54.283Z,53.45
2023-04-13T06:22:57.613Z,54.72
2023-04-13T06:28:02.723Z,57.15
2023-04-13T06:33:06.430Z,58.80
2023-04-13T06:38:10.419Z,67.33
2023-04-13T06:43:26.428Z,69.53
2023-04-13T06:48:33.250Z,64.60
2023-04-13T06:53:36.318Z,61.43
2023-04-13T06:58:39.427Z,55.17
2023-04-13T07:03:43.739Z,53.49
2023-04-13T07:08:47.304Z,55.70
2023-04-13T07:13:50.390Z,58.00
2023-04-13T07:18:53.511Z,58.74
2023-04-13T07:23:56.632Z,59.83
2023-04-13T07:28:59.995Z,67.49
2023-04-13T07:34:03.337Z,68.51
2023-04-13T07:39:09.101Z,62.38
2023-04-13T07:44:12.714Z,55.41
2023-04-13T07:49:15.859Z,53.42
2023-04-13T07:54:19.024Z,54.81
2023-04-13T07:59:24.123Z,56.08
2023-04-13T08:04:28.468Z,57.43
2023-04-13T08:09:36.760Z,59.56
2023-04-13T08:14:39.949Z,59.77
2023-04-13T08:19:43.062Z,63.90
2023-04-13T08:24:46.099Z,65.93
2023-04-13T08:29:56.330Z,57.03
2023-04-13T08:34:59.855Z,53.64
2023-04-13T08:40:07.604Z,55.12
2023-04-13T08:45:13.200Z,55.66
2023-04-13T08:50:17.599Z,56.96
2023-04-13T08:55:20.810Z,58.00
2023-04-13T09:00:25.721Z,56.73
2023-04-13T09:05:30.943Z,57.62
2023-04-13T09:10:35.421Z,57.02
2023-04-13T09:15:39.348Z,56.60
2023-04-13T09:20:42.654Z,56.77
2023-04-13T09:25:46.993Z,57.00
2023-04-13T09:30:50.228Z,56.09
2023-04-13T09:35:53.412Z,55.48
2023-04-13T09:40:58.465Z,54.56
2023-04-13T09:46:01.816Z,53.84
2023-04-13T09:51:08.747Z,53.65
2023-04-13T09:56:12.501Z,53.84
2023-04-13T10:01:15.780Z,53.56
2023-04-13T10:06:20.656Z,52.73
2023-04-13T10:11:24.779Z,52.43
2023-04-13T10:16:54.130Z,52.55
2023-04-13T10:21:58.918Z,51.54
2023-04-13T10:27:14.394Z,51.82
2023-04-13T10:32:26.990Z,51.26
2023-04-13T10:37:30.284Z,50.83
2023-04-13T10:47:58.787Z,49.81
2023-04-13T10:53:07.924Z,50.45
2023-04-13T10:58:18.489Z,51.00
2023-04-13T11:03:22.473Z,50.16
2023-04-13T11:08:28.298Z,48.92
2023-04-13T11:13:32.970Z,48.01
2023-04-13T11:18:36.401Z,46.41
2023-04-13T11:23:39.544Z,46.66
2023-04-13T11:28:46.413Z,47.11
2023-04-13T11:33:49.754Z,46.78
2023-04-13T11:38:54.569Z,47.49
2023-04-13T11:43:58.076Z,45.81
2023-04-13T11:49:01.938Z,45.62
2023-04-13T11:54:07.015Z,47.05
2023-04-13T11:59:10.084Z,48.28
2023-04-13T12:04:16.371Z,48.15
2023-04-13T12:09:20.853Z,48.27
2023-04-13T12:19:43.184Z,46.28
2023-04-13T12:24:48.153Z,45.91
2023-04-13T12:29:51.850Z,46.79
2023-04-13T12:34:54.946Z,45.97
2023-04-13T12:39:58.479Z,45.56
2023-04-13T12:45:01.566Z,44.60
2023-04-13T12:50:10.594Z,45.42
2023-04-13T12:55:13.754Z,45.57
2023-04-13T13:00:18.254Z,45.04
2023-04-13T13:05:21.586Z,44.09
2023-04-13T13:10:29.499Z,44.01
2023-04-13T13:15:34.272Z,46.42
2023-04-13T13:20:41.566Z,46.06
2023-04-13T13:25:54.286Z,46.65
2023-04-13T13:31:09.084Z,46.43
2023-04-13T13:36:14.665Z,47.38
2023-04-13T13:41:18.537Z,47.76
2023-04-13T13:46:21.715Z,47.60
2023-04-13T13:51:24.952Z,48.03
2023-04-13T13:56:27.976Z,46.76
2023-04-13T14:01:31.707Z,46.88
2023-04-13T14:06:34.886Z,46.42
2023-04-13T14:11:38.224Z,45.99
2023-04-13T14:16:41.613Z,48.20
2023-04-13T14:21:44.735Z,47.23
2023-04-13T14:26:47.840Z,47.87
2023-04-13T14:31:50.853Z,47.01
2023-04-13T14:36:54.523Z,46.91
2023-04-13T14:41:57.698Z,46.35
2023-04-13T14:47:01.781Z,46.29
2023-04-13T14:52:05.095Z,45.69
2023-04-13T14:57:10.066Z,46.43
2023-04-13T15:02:13.365Z,46.92
2023-04-13T15:07:16.789Z,45.72
2023-04-13T15:12:19.982Z,46.04
2023-04-13T15:17:23.191Z,47.11
2023-04-13T15:22:26.641Z,46.77
2023-04-13T15:27:29.979Z,46.54
2023-04-13T15:32:36.435Z,45.63
2023-04-13T15:37:39.932Z,45.03
2023-04-13T15:42:43.128Z,45.11
2023-04-13T15:47:46.727Z,45.43
2023-04-13T15:52:50.108Z,45.27
2023-04-13T15:57:54.113Z,44.55
2023-04-13T16:02:57.608Z,44.53
2023-04-13T16:08:01.228Z,43.65
2023-04-13T16:13:06.708Z,44.27
2023-04-13T16:18:09.787Z,43.56
2023-04-13T16:23:14.543Z,43.73
2023-04-13T16:28:17.842Z,43.95
2023-04-13T16:33:21.055Z,44.45
2023-04-13T16:38:24.157Z,45.30
2023-04-13T16:43:27.276Z,45.34
2023-04-13T16:48:30.979Z,46.00
2023-04-13T16:53:33.988Z,46.41
2023-04-13T16:58:38.112Z,47.14
2023-04-13T17:03:41.293Z,48.12
2023-04-13T17:08:44.534Z,48.89
2023-04-13T17:13:47.635Z,49.24
2023-04-13T17:18:50.780Z,49.55
2023-04-13T17:23:53.960Z,50.58
2023-04-13T17:28:57.309Z,51.06
2023-04-13T17:34:00.788Z,50.99
2023-04-13T17:39:06.755Z,51.32
2023-04-13T17:44:09.957Z,51.57
2023-04-13T17:49:13.398Z,52.00
2023-04-13T17:54:16.479Z,52.24
2023-04-13T17:59:19.587Z,52.47
2023-04-13T18:04:22.913Z,52.85
2023-04-13T18:09:28.312Z,53.21
2023-04-13T18:14:31.484Z,53.43
2023-04-13T18:19:34.987Z,53.79
2023-04-13T18:24:39.046Z,54.01
2023-04-13T18:29:42.223Z,54.40
2023-04-13T18:34:45.350Z,54.77
2023-04-13T18:39:48.540Z,55.02
2023-04-13T18:44:51.670Z,55.41
2023-04-13T18:49:55.364Z,55.81
2023-04-13T18:54:59.299Z,56.52
2023-04-13T19:00:02.426Z,56.88
2023-04-13T19:05:06.291Z,57.24
2023-04-13T19:10:11.268Z,57.57
2023-04-13T19:15:14.373Z,57.83
2023-04-13T19:20:18.284Z,58.30
2023-04-13T19:25:21.943Z,58.68
2023-04-13T19:30:25.247Z,59.05
2023-04-13T19:35:29.364Z,59.33
2023-04-13T19:40:32.464Z,59.69
2023-04-13T19:45:36.266Z,60.05
2023-04-13T19:50:39.292Z,60.44
2023-04-13T19:55:42.528Z,66.76
2023-04-13T20:00:47.441Z,68.86
2023-04-13T20:05:50.760Z,64.20
2023-04-13T20:10:54.071Z,55.92
2023-04-13T20:15:57.131Z,53.22
2023-04-13T20:21:00.800Z,54.64
2023-04-13T20:26:04.716Z,56.02
2023-04-13T20:31:08.615Z,57.33
2023-04-13T20:36:12.395Z,58.84
2023-04-13T20:41:15.385Z,60.11
2023-04-13T20:46:18.943Z,68.38
2023-04-13T20:51:23.632Z,68.13
2023-04-13T20:56:26.685Z,63.25
2023-04-13T21:01:30.663Z,56.15
2023-04-13T21:06:37.680Z,54.35
2023-04-13T21:11:42.772Z,55.07
2023-04-13T21:16:45.970Z,56.57
2023-04-13T21:21:49.250Z,58.15
2023-04-13T21:26:52.411Z,59.44
2023-04-13T21:31:55.607Z,60.37
2023-04-13T21:37:01.844Z,68.72
2023-04-13T21:42:05.540Z,69.11
2023-04-13T21:47:08.615Z,64.15
2023-04-13T21:52:11.668Z,56.82
2023-04-13T21:57:14.868Z,54.77
2023-04-13T22:02:17.959Z,56.83
2023-04-13T22:07:31.483Z,59.03
2023-04-13T22:12:42.427Z,68.11
2023-04-13T22:17:45.708Z,68.91
2023-04-13T22:22:48.945Z,63.99
2023-04-13T22:27:53.370Z,60.64
2023-04-13T22:32:57.358Z,54.15
2023-04-13T22:38:00.405Z,53.36
2023-04-13T22:43:03.412Z,54.72
2023-04-13T22:48:06.908Z,56.80
2023-04-13T22:53:10.075Z,58.22
2023-04-13T22:58:13.235Z,66.77
2023-04-13T23:03:16.745Z,68.18
2023-04-13T23:08:21.029Z,63.96
2023-04-13T23:13:24.101Z,61.16
2023-04-13T23:18:27.820Z,55.64
2023-04-13T23:23:30.845Z,54.95
2023-04-13T23:28:33.922Z,56.57
2023-04-13T23:33:37.468Z,58.30
2023-04-13T23:38:40.549Z,66.60
2023-04-13T23:43:43.668Z,68.58
2023-04-13T23:48:46.767Z,64.86
2023-04-13T23:53:49.873Z,63.14
2023-04-13T23:58:53.075Z,60.99
